Time;durP1;ratioP1;P1;durP2;ratioP2;P2;SDS_P1;SDS_P2;PMS_P1;PMS_P2;Temp;Humidity;BMP_temperature;BMP_pressure;BME280_temperature;BME280_humidity;BME280_pressure;Samples;Min_cycle;Max_cycle;Signal;HPM_P1;HPM_P2
2023/10/02 00:02:11;;;;;;;0.00;0.00;;;;;;;13.27;100.00;97202.41;5001858;28;20485;-90
2023/10/02 00:04:57;;;;;;;0.10;0.10;;;;;;;13.21;100.00;97214.94;4996864;28;20038;-89
2023/10/02 00:07:45;;;;;;;0.10;0.10;;;;;;;13.17;100.00;97213.78;4991042;28;20124;-85
2023/10/02 00:10:40;;;;;;;0.00;0.00;;;;;;;13.16;100.00;97204.09;4994166;28;20042;-90
2023/10/02 00:13:26;;;;;;;0.08;0.08;;;;;;;13.00;100.00;97208.44;4998665;28;20042;-83
2023/10/02 00:16:12;;;;;;;0.00;0.00;;;;;;;12.99;100.00;97205.97;4998296;28;20041;-83
2023/10/02 00:19:20;;;;;;;0.10;0.10;;;;;;;12.90;100.00;97202.88;5003641;28;20500;-89
2023/10/02 00:22:34;;;;;;;0.10;0.10;;;;;;;12.85;100.00;97207.38;5002258;28;20045;-87
2023/10/02 00:25:51;;;;;;;0.08;0.08;;;;;;;12.85;100.00;97200.13;4998971;28;20124;-87
2023/10/02 00:28:37;;;;;;;0.08;0.08;;;;;;;12.87;100.00;97208.75;4998738;28;20744;-87
2023/10/02 00:32:11;;;;;;;0.00;0.00;;;;;;;12.89;100.00;97206.63;4999280;28;20053;-87
2023/10/02 00:34:31;;;;;;;0.10;0.10;;;;;;;13.01;100.00;97207.38;4982518;28;20105;-89
2023/10/02 00:37:17;;;;;;;0.00;0.00;;;;;;;13.10;100.00;97210.44;4984807;28;20508;-89
2023/10/02 00:40:07;;;;;;;0.00;0.00;;;;;;;13.22;100.00;97202.31;4997320;28;20041;-88
2023/10/02 00:42:58;;;;;;;0.03;0.03;;;;;;;13.19;100.00;97208.16;4985205;28;20615;-91
2023/10/02 00:45:44;;;;;;;0.00;0.00;;;;;;;13.07;100.00;97202.88;4971291;28;20152;-86
2023/10/02 00:48:33;;;;;;;0.10;0.10;;;;;;;13.04;100.00;97209.56;4980224;28;20824;-87
2023/10/02 00:51:22;;;;;;;0.10;0.10;;;;;;;13.07;100.00;97208.25;4998472;28;20045;-90
2023/10/02 00:54:23;;;;;;;0.10;0.10;;;;;;;13.16;100.00;97197.91;4981782;28;20123;-87
2023/10/02 00:57:16;;;;;;;0.10;0.10;;;;;;;13.12;100.00;97192.22;4999803;28;20030;-89
2023/10/02 01:00:16;;;;;;;0.10;0.10;;;;;;;13.17;100.00;97194.16;4986242;28;20076;-89
2023/10/02 01:03:17;;;;;;;0.10;0.10;;;;;;;13.14;100.00;97194.63;4983498;28;20038;-91
2023/10/02 01:06:11;;;;;;;0.10;0.10;;;;;;;13.13;100.00;97193.81;4995641;28;20139;-89
2023/10/02 01:09:00;;;;;;;0.10;0.10;;;;;;;13.11;100.00;97191.38;4983641;28;20042;-87
2023/10/02 01:11:47;;;;;;;0.00;0.00;;;;;;;13.16;100.00;97189.84;4999203;28;20046;-85
2023/10/02 01:14:40;;;;;;;0.00;0.00;;;;;;;13.15;100.00;97199.78;4982896;28;20116;-87
2023/10/02 01:17:34;;;;;;;0.10;0.10;;;;;;;13.19;100.00;97194.72;4967953;28;20045;-91
2023/10/02 01:20:48;;;;;;;0.10;0.10;;;;;;;13.19;100.00;97189.34;4996510;28;20045;-87
2023/10/02 01:23:33;;;;;;;0.10;0.10;;;;;;;13.25;100.00;97197.28;4985109;28;20069;-86
2023/10/02 01:26:19;;;;;;;0.10;0.10;;;;;;;13.16;100.00;97187.16;5001517;28;20743;-86
2023/10/02 01:29:07;;;;;;;0.10;0.10;;;;;;;13.16;100.00;97187.16;4985165;28;20054;-88
2023/10/02 01:31:53;;;;;;;0.00;0.00;;;;;;;13.16;100.00;97179.91;4985801;28;20488;-88
2023/10/02 01:34:42;;;;;;;0.10;0.10;;;;;;;13.15;100.00;97185.50;4988271;28;20050;-90
2023/10/02 01:37:34;;;;;;;0.10;0.10;;;;;;;13.19;100.00;97181.28;4999047;28;20042;-89
2023/10/02 01:40:28;;;;;;;0.10;0.10;;;;;;;13.16;100.00;97181.78;4995871;28;20045;-86
2023/10/02 01:43:20;;;;;;;0.10;0.10;;;;;;;13.04;100.00;97171.94;4998782;28;20128;-90
2023/10/02 01:46:07;;;;;;;0.10;0.10;;;;;;;13.00;100.00;97183.44;4969637;28;20146;-86
2023/10/02 01:48:54;;;;;;;0.10;0.10;;;;;;;12.96;100.00;97174.22;4978162;28;20069;-89
2023/10/02 01:51:42;;;;;;;0.08;0.08;;;;;;;12.86;100.00;97172.22;4997157;28;20095;-86
2023/10/02 01:54:31;;;;;;;0.00;0.00;;;;;;;12.74;100.00;97172.28;4985157;28;20044;-88
2023/10/02 01:57:24;;;;;;;0.03;0.03;;;;;;;12.72;100.00;97165.53;5001804;28;20038;-88
2023/10/02 02:00:15;;;;;;;0.10;0.10;;;;;;;12.69;100.00;97174.09;5003740;28;20064;-84
2023/10/02 02:03:20;;;;;;;0.00;0.00;;;;;;;12.54;100.00;97186.22;4985035;28;20790;-88
2023/10/02 02:06:10;;;;;;;0.10;0.10;;;;;;;12.58;100.00;97177.66;5004675;28;20117;-91
2023/10/02 02:08:59;;;;;;;0.10;0.10;;;;;;;12.46;100.00;97180.44;5013366;28;20053;-84
2023/10/02 02:12:05;;;;;;;0.00;0.00;;;;;;;12.36;100.00;97178.38;5030500;28;20041;-83
2023/10/02 02:14:50;;;;;;;0.10;0.10;;;;;;;12.35;100.00;97178.63;5031280;28;20057;-85
2023/10/02 02:17:41;;;;;;;0.00;0.00;;;;;;;12.29;100.00;97175.03;5023075;28;20037;-85
2023/10/02 02:20:57;;;;;;;0.10;0.10;;;;;;;12.33;100.00;97170.00;5010426;28;20045;-88
2023/10/02 02:24:07;;;;;;;0.10;0.10;;;;;;;12.30;100.00;97182.03;5002130;28;20038;-87
2023/10/02 02:26:57;;;;;;;0.10;0.10;;;;;;;12.31;100.00;97167.56;5007392;28;20115;-88
2023/10/02 02:29:43;;;;;;;0.00;0.00;;;;;;;12.26;100.00;97170.16;4978019;28;20141;-84
2023/10/02 02:33:05;;;;;;;0.10;0.10;;;;;;;12.19;100.00;97164.13;4968124;28;20425;-88
2023/10/02 02:35:48;;;;;;;0.17;0.10;;;;;;;12.31;100.00;97164.06;4970095;28;20050;-88
2023/10/02 02:38:34;;;;;;;0.10;0.10;;;;;;;12.42;100.00;97176.59;4984395;28;20093;-88
2023/10/02 02:41:21;;;;;;;0.10;0.10;;;;;;;12.23;100.00;97171.44;4985985;28;20038;-89
2023/10/02 02:44:36;;;;;;;0.10;0.10;;;;;;;12.28;100.00;97181.44;4987528;28;20664;-86
2023/10/02 02:47:50;;;;;;;0.00;0.00;;;;;;;12.23;100.00;97173.31;4933082;28;20126;-88
2023/10/02 02:50:42;;;;;;;0.10;0.10;;;;;;;12.09;100.00;97167.44;4970341;28;20055;-87
2023/10/02 02:53:32;;;;;;;0.10;0.10;;;;;;;12.06;100.00;97165.25;4985175;28;20142;-91
2023/10/02 02:56:28;;;;;;;0.10;0.10;;;;;;;12.20;100.00;97176.47;4984823;28;20445;-90
2023/10/02 02:59:17;;;;;;;0.10;0.10;;;;;;;12.24;100.00;97167.72;4969540;28;20057;-90
2023/10/02 03:02:21;;;;;;;0.00;0.00;;;;;;;12.37;100.00;97171.94;4970685;28;20054;-88
2023/10/02 03:05:11;;;;;;;0.10;0.10;;;;;;;12.42;100.00;97173.91;4982452;28;20038;-89
2023/10/02 03:07:57;;;;;;;0.10;0.10;;;;;;;12.42;100.00;97169.34;4982055;28;20493;-88
2023/10/02 03:10:57;;;;;;;0.10;0.10;;;;;;;12.44;100.00;97159.19;4984844;28;20050;-86
2023/10/02 03:13:43;;;;;;;0.00;0.00;;;;;;;12.39;100.00;97167.16;4983316;28;20052;-86
2023/10/02 03:16:29;;;;;;;0.00;0.00;;;;;;;12.33;100.00;97170.81;4980799;28;20076;-88
2023/10/02 03:19:21;;;;;;;0.00;0.00;;;;;;;12.19;100.00;97164.94;4982434;28;20049;-89
2023/10/02 03:22:09;;;;;;;0.08;0.08;;;;;;;11.99;100.00;97160.03;4983690;28;20046;-87
2023/10/02 03:25:56;;;;;;;0.10;0.10;;;;;;;11.97;100.00;97163.97;4986914;28;20049;-89
2023/10/02 03:31:52;;;;;;;0.00;0.00;;;;;;;11.98;100.00;97153.03;5002900;28;20053;-87
2023/10/02 03:35:02;;;;;;;0.08;0.08;;;;;;;12.01;100.00;97167.81;5005397;28;20041;-89
2023/10/02 03:37:51;;;;;;;0.10;0.10;;;;;;;12.00;100.00;97163.53;5003009;28;20042;-90
2023/10/02 03:40:37;;;;;;;0.10;0.10;;;;;;;11.98;100.00;97152.19;4999585;28;20034;-89
2023/10/02 03:43:35;;;;;;;0.08;0.08;;;;;;;11.92;100.00;97170.09;5001988;28;20060;-87
2023/10/02 03:46:23;;;;;;;0.00;0.00;;;;;;;11.86;100.00;97157.63;4973772;28;20483;-86
2023/10/02 03:49:18;;;;;;;0.03;0.03;;;;;;;11.94;100.00;97153.75;5002245;28;20654;-90
2023/10/02 03:52:16;;;;;;;0.10;0.10;;;;;;;11.88;100.00;97158.19;4993446;28;20605;-88
2023/10/02 03:55:17;;;;;;;0.00;0.00;;;;;;;11.90;100.00;97156.06;5003714;28;20103;-90
2023/10/02 03:58:05;;;;;;;0.10;0.10;;;;;;;11.81;100.00;97152.16;4993952;28;20034;-84
2023/10/02 04:00:54;;;;;;;0.10;0.10;;;;;;;11.83;100.00;97146.53;5002928;28;20066;-87
2023/10/02 04:03:55;;;;;;;0.03;0.03;;;;;;;11.79;100.00;97150.75;5004879;28;20137;-85
2023/10/02 04:06:45;;;;;;;0.10;0.10;;;;;;;11.69;100.00;97146.00;5001443;28;20616;-86
2023/10/02 04:09:36;;;;;;;0.00;0.00;;;;;;;11.78;100.00;97151.81;4988885;28;20058;-86
2023/10/02 04:12:22;;;;;;;0.10;0.10;;;;;;;11.79;100.00;97140.03;5002483;28;20038;-85
2023/10/02 04:15:11;;;;;;;0.10;0.10;;;;;;;11.78;100.00;97141.88;4997612;28;20066;-86
2023/10/02 04:17:57;;;;;;;0.10;0.10;;;;;;;11.68;100.00;97131.78;5001506;28;20535;-85
2023/10/02 04:20:51;;;;;;;0.10;0.10;;;;;;;11.70;100.00;97136.91;4999454;28;20045;-87
2023/10/02 04:23:42;;;;;;;0.10;0.10;;;;;;;11.70;100.00;97139.59;5000911;28;20081;-88
2023/10/02 04:26:28;;;;;;;0.10;0.10;;;;;;;11.67;100.00;97140.03;5001779;28;20038;-87
2023/10/02 04:29:26;;;;;;;0.10;0.10;;;;;;;11.56;100.00;97133.69;5000839;28;20061;-87
2023/10/02 04:32:24;;;;;;;0.10;0.10;;;;;;;11.51;100.00;97135.44;4986977;28;20490;-85
2023/10/02 04:38:49;;;;;;;0.10;0.10;;;;;;;11.46;100.00;97146.91;5009469;28;20061;-83
2023/10/02 04:41:37;;;;;;;0.10;0.10;;;;;;;11.48;100.00;97138.59;5007283;28;20065;-86
2023/10/02 04:44:28;;;;;;;0.10;0.10;;;;;;;11.36;100.00;97125.22;5012229;28;20042;-89
2023/10/02 04:47:20;;;;;;;0.10;0.10;;;;;;;11.48;100.00;97142.09;4979334;28;20092;-87
2023/10/02 04:52:59;;;;;;;0.10;0.10;;;;;;;11.47;100.00;97134.31;5004081;28;20054;-84
2023/10/02 04:56:06;;;;;;;0.10;0.10;;;;;;;11.48;100.00;97130.56;5000711;28;20049;-83
2023/10/02 04:58:58;;;;;;;0.03;0.03;;;;;;;11.50;100.00;97128.47;5003467;28;20478;-86
2023/10/02 05:02:15;;;;;;;0.10;0.10;;;;;;;11.50;100.00;97131.13;4988493;28;20053;-87
2023/10/02 05:05:05;;;;;;;0.10;0.10;;;;;;;11.34;100.00;97128.16;5010876;28;20048;-88
2023/10/02 05:07:52;;;;;;;0.10;0.10;;;;;;;11.35;100.00;97140.50;5010064;28;20045;-87
2023/10/02 05:10:38;;;;;;;0.10;0.10;;;;;;;11.35;100.00;97132.44;5002345;28;20133;-87
2023/10/02 05:16:33;;;;;;;0.10;0.10;;;;;;;11.34;100.00;97130.81;5004324;28;20054;-86
2023/10/02 05:19:49;;;;;;;0.00;0.00;;;;;;;11.32;100.00;97138.28;5003136;28;20069;-87
2023/10/02 05:22:27;;;;;;;0.10;0.10;;;;;;;11.29;100.00;97132.59;5001689;28;20034;-85
2023/10/02 05:25:18;;;;;;;0.10;0.10;;;;;;;11.32;100.00;97134.81;5001314;28;20505;-86
2023/10/02 05:28:05;;;;;;;0.10;0.10;;;;;;;11.37;100.00;97127.69;5010523;28;20037;-83
2023/10/02 05:31:28;;;;;;;0.10;0.10;;;;;;;11.40;100.00;97129.88;5010127;28;20046;-85
2023/10/02 05:34:24;;;;;;;0.05;0.05;;;;;;;11.47;100.00;97135.13;4934311;29;20044;-89
2023/10/02 05:45:54;;;;;;;0.00;0.00;;;;;;;11.71;100.00;97141.22;4988725;28;20050;-89
2023/10/02 05:48:40;;;;;;;0.10;0.10;;;;;;;11.75;100.00;97142.38;4975894;28;20496;-89
2023/10/02 05:51:47;;;;;;;0.10;0.10;;;;;;;11.77;100.00;97142.13;5004689;28;20519;-87
2023/10/02 05:54:42;;;;;;;0.10;0.10;;;;;;;11.90;100.00;97139.16;5006189;28;20041;-86
2023/10/02 05:57:31;;;;;;;0.10;0.10;;;;;;;11.96;100.00;97140.91;5001777;28;20118;-83
2023/10/02 06:00:20;;;;;;;0.10;0.10;;;;;;;12.02;100.00;97144.50;4985126;28;20034;-83
2023/10/02 06:03:07;;;;;;;0.10;0.10;;;;;;;11.98;100.00;97145.00;4988814;28;20046;-85
2023/10/02 06:09:12;;;;;;;0.10;0.10;;;;;;;12.12;100.00;97142.81;5003420;28;20034;-86
2023/10/02 06:12:02;;;;;;;0.10;0.10;;;;;;;12.20;100.00;97139.72;5003054;28;20065;-85
2023/10/02 06:14:51;;;;;;;0.10;0.10;;;;;;;12.35;100.00;97146.41;4987893;28;20046;-86
2023/10/02 06:17:37;;;;;;;0.10;0.10;;;;;;;12.39;100.00;97148.38;4999304;28;20048;-86
2023/10/02 06:20:26;;;;;;;0.10;0.10;;;;;;;12.51;100.00;97145.59;5001285;28;20049;-86
2023/10/02 06:23:24;;;;;;;0.10;0.10;;;;;;;12.62;100.00;97142.03;5007280;28;20087;-85
2023/10/02 06:26:11;;;;;;;0.10;0.10;;;;;;;12.76;100.00;97154.09;4988746;28;20038;-85
2023/10/02 06:32:05;;;;;;;0.10;0.10;;;;;;;12.88;100.00;97142.41;4995018;28;20379;-85
2023/10/02 06:34:53;;;;;;;0.10;0.10;;;;;;;12.90;100.00;97146.47;4998928;28;20069;-85
2023/10/02 06:37:45;;;;;;;0.10;0.10;;;;;;;12.87;100.00;97144.28;5001260;28;20045;-88
2023/10/02 06:40:34;;;;;;;0.00;0.00;;;;;;;12.93;100.00;97146.00;5000583;28;20041;-86
2023/10/02 06:43:28;;;;;;;0.10;0.10;;;;;;;13.08;100.00;97150.78;4999406;28;20050;-85
2023/10/02 06:46:19;;;;;;;0.10;0.10;;;;;;;13.10;100.00;97151.34;4968683;28;20058;-88
2023/10/02 06:49:15;;;;;;;0.10;0.10;;;;;;;13.08;100.00;97150.78;4978652;28;20136;-86
2023/10/02 06:52:12;;;;;;;0.10;0.10;;;;;;;13.11;100.00;97156.47;4989029;28;20042;-86
2023/10/02 06:55:03;;;;;;;0.05;0.05;;;;;;;13.20;100.00;97164.94;5000935;28;20231;-89
2023/10/02 06:58:14;;;;;;;0.10;0.10;;;;;;;13.28;100.00;97153.75;5004200;28;20053;-89
2023/10/02 07:01:03;;;;;;;0.00;0.00;;;;;;;13.36;100.00;97153.31;4995373;28;20073;-87
2023/10/02 07:03:52;;;;;;;0.10;0.10;;;;;;;13.46;100.00;97152.63;4993661;28;20038;-87
2023/10/02 07:06:39;;;;;;;0.20;0.20;;;;;;;13.57;100.00;97153.59;4990010;28;20038;-87
2023/10/02 07:09:24;;;;;;;0.10;0.10;;;;;;;13.70;100.00;97165.88;4993026;28;20153;-86
2023/10/02 07:12:13;;;;;;;0.00;0.00;;;;;;;13.82;100.00;97166.53;4997904;28;20786;-87
2023/10/02 07:15:12;;;;;;;0.10;0.10;;;;;;;13.91;100.00;97163.13;4977858;28;20046;-85
2023/10/02 07:18:01;;;;;;;0.10;0.10;;;;;;;14.05;100.00;97160.06;4993469;28;20052;-83
2023/10/02 07:20:53;;;;;;;0.05;0.05;;;;;;;14.19;100.00;97163.97;5003125;28;20523;-88
2023/10/02 07:23:39;;;;;;;0.10;0.10;;;;;;;14.33;100.00;97156.31;4994510;28;20038;-89
2023/10/02 07:29:38;;;;;;;0.10;0.10;;;;;;;14.59;100.00;97154.66;4988691;28;20148;-84
2023/10/02 07:32:31;;;;;;;0.03;0.03;;;;;;;14.73;100.00;97156.66;4991240;28;20049;-85
2023/10/02 07:35:23;;;;;;;0.10;0.10;;;;;;;14.83;100.00;97161.31;4992860;28;20042;-85
2023/10/02 07:38:09;;;;;;;0.00;0.00;;;;;;;14.89;100.00;97160.28;4989468;28;20140;-87
2023/10/02 07:41:06;;;;;;;0.00;0.00;;;;;;;14.94;100.00;97157.63;4991448;28;20105;-86
2023/10/02 07:44:07;;;;;;;0.10;0.10;;;;;;;15.09;100.00;97170.38;4989890;28;20509;-86
2023/10/02 07:46:55;;;;;;;0.00;0.00;;;;;;;15.15;100.00;97163.94;4980335;28;20655;-87
2023/10/02 07:49:44;;;;;;;0.10;0.10;;;;;;;15.25;100.00;97155.94;4988313;28;20061;-88
2023/10/02 07:52:30;;;;;;;0.00;0.00;;;;;;;15.37;100.00;97161.13;4990910;28;20038;-88
2023/10/02 07:55:15;;;;;;;0.10;0.10;;;;;;;15.47;100.00;97163.03;4989700;28;20168;-87
2023/10/02 07:58:01;;;;;;;0.08;0.08;;;;;;;15.55;100.00;97155.25;4991920;28;20040;-86
2023/10/02 08:00:49;;;;;;;0.00;0.00;;;;;;;15.67;100.00;97159.69;4987142;28;20660;-85
2023/10/02 08:03:43;;;;;;;0.10;0.10;;;;;;;15.75;100.00;97162.66;4989529;28;20046;-85
2023/10/02 08:12:30;;;;;;;0.10;0.10;;;;;;;16.23;100.00;97152.53;4988835;28;20053;-84
2023/10/02 08:15:32;;;;;;;0.03;0.03;;;;;;;16.38;100.00;97149.84;4986982;28;20088;-86
2023/10/02 08:18:18;;;;;;;0.10;0.10;;;;;;;16.59;100.00;97144.47;4989813;28;20050;-86
2023/10/02 08:21:04;;;;;;;0.10;0.10;;;;;;;16.70;100.00;97154.22;4988482;28;20121;-85
2023/10/02 08:23:54;;;;;;;0.08;0.08;;;;;;;16.82;100.00;97152.06;4991421;28;20038;-86
2023/10/02 08:26:43;;;;;;;0.10;0.10;;;;;;;16.94;100.00;97154.47;4990627;28;20042;-86
2023/10/02 08:29:29;;;;;;;0.10;0.10;;;;;;;17.07;100.00;97153.13;4977276;28;20679;-84
2023/10/02 08:32:28;;;;;;;0.10;0.10;;;;;;;17.21;100.00;97144.16;4986149;28;20802;-85
2023/10/02 08:35:14;;;;;;;0.10;0.10;;;;;;;17.29;100.00;97152.81;4969056;28;20049;-84
2023/10/02 08:38:00;;;;;;;0.10;0.10;;;;;;;17.45;100.00;97146.28;4973059;28;20046;-85
2023/10/02 08:40:46;;;;;;;0.13;0.13;;;;;;;17.60;100.00;97148.13;4985046;28;20049;-86
2023/10/02 08:43:32;;;;;;;0.08;0.08;;;;;;;17.64;100.00;97149.16;4964770;28;20037;-85
2023/10/02 08:46:24;;;;;;;0.10;0.10;;;;;;;17.78;100.00;97142.09;4963529;28;20037;-86
2023/10/02 08:49:16;;;;;;;0.10;0.10;;;;;;;17.82;100.00;97151.31;4997673;28;20124;-85
2023/10/02 08:52:12;;;;;;;0.00;0.00;;;;;;;17.99;100.00;97145.53;4992067;28;20034;-85
2023/10/02 08:55:25;;;;;;;0.13;0.13;;;;;;;18.07;100.00;97137.63;4991590;28;20042;-85
2023/10/02 08:58:21;;;;;;;0.10;0.10;;;;;;;18.25;100.00;97147.00;4991447;28;20038;-86
2023/10/02 09:07:13;;;;;;;0.10;0.10;;;;;;;18.35;100.00;97132.56;4988010;28;20072;-85
2023/10/02 09:10:12;;;;;;;0.10;0.10;;;;;;;18.33;100.00;97137.47;4986330;28;20042;-85
2023/10/02 09:13:19;;;;;;;0.00;0.00;;;;;;;18.49;100.00;97130.84;4989415;28;20038;-85
2023/10/02 09:16:10;;;;;;;0.10;0.10;;;;;;;18.58;100.00;97136.44;4989574;28;20038;-87
2023/10/02 09:19:08;;;;;;;0.10;0.10;;;;;;;18.60;100.00;97131.59;4989102;28;20046;-85
2023/10/02 09:22:06;;;;;;;0.00;0.00;;;;;;;18.52;100.00;97130.28;4989047;28;20092;-86
2023/10/02 09:25:09;;;;;;;0.10;0.10;;;;;;;18.72;100.00;97132.03;4986270;28;21131;-85
2023/10/02 09:28:04;;;;;;;0.10;0.10;;;;;;;18.95;100.00;97135.09;4984874;28;20504;-85
2023/10/02 09:30:50;;;;;;;0.10;0.10;;;;;;;19.12;100.00;97122.69;4987057;28;20698;-87
2023/10/02 09:33:37;;;;;;;0.10;0.10;;;;;;;19.16;100.00;97131.91;4987340;28;20614;-86
2023/10/02 09:36:36;;;;;;;0.10;0.10;;;;;;;19.10;100.00;97129.53;4987404;28;20045;-86
2023/10/02 09:39:38;;;;;;;0.10;0.10;;;;;;;19.23;100.00;97122.63;4977207;28;20039;-86
2023/10/02 09:42:25;;;;;;;0.10;0.10;;;;;;;19.27;100.00;97126.34;4989176;28;20505;-86
2023/10/02 09:45:15;;;;;;;0.10;0.10;;;;;;;19.52;100.00;97119.81;4990872;28;20572;-86
2023/10/02 09:48:46;;;;;;;0.10;0.10;;;;;;;19.80;100.00;97123.59;4959872;28;20097;-86
2023/10/02 09:51:17;;;;;;;0.10;0.10;;;;;;;20.22;100.00;97114.56;4988246;28;20041;-86
2023/10/02 09:54:21;;;;;;;0.00;0.00;;;;;;;20.30;100.00;97120.16;4989650;28;20595;-85
2023/10/02 09:57:31;;;;;;;0.10;0.10;;;;;;;20.73;100.00;97105.66;4987161;28;20046;-85
2023/10/02 10:00:36;;;;;;;0.10;0.10;;;;;;;21.42;100.00;97112.06;4989408;28;20564;-85
2023/10/02 10:03:22;;;;;;;0.10;0.10;;;;;;;22.47;100.00;97107.31;4987120;28;21086;-84
2023/10/02 10:06:16;;;;;;;0.17;0.17;;;;;;;23.95;100.00;97106.13;4975097;28;20042;-85
2023/10/02 10:12:32;;;;;;;0.20;0.20;;;;;;;26.79;83.94;97091.72;4986869;28;20164;-85
2023/10/02 10:15:23;;;;;;;0.10;0.10;;;;;;;28.20;75.56;97093.22;4990456;28;20042;-85
2023/10/02 10:18:12;;;;;;;0.10;0.10;;;;;;;29.34;68.60;97090.94;4979226;28;20042;-85
2023/10/02 10:21:55;;;;;;;0.15;0.15;;;;;;;28.77;62.34;97097.63;4982107;28;20778;-85
2023/10/02 10:28:08;;;;;;;0.10;0.10;;;;;;;31.32;47.78;97095.66;4990694;28;20053;-86
2023/10/02 10:30:56;;;;;;;0.10;0.10;;;;;;;30.55;46.99;97090.97;4992476;28;20060;-84
2023/10/02 10:33:43;;;;;;;0.10;0.10;;;;;;;30.83;50.53;97096.31;4982016;28;20138;-85
2023/10/02 10:36:37;;;;;;;0.00;0.00;;;;;;;31.62;42.03;97090.25;4988423;28;20681;-84
2023/10/02 10:39:51;;;;;;;0.10;0.10;;;;;;;29.60;47.95;97091.22;4988988;28;20045;-84
2023/10/02 10:42:59;;;;;;;0.10;0.10;;;;;;;30.27;43.48;97085.66;4988657;28;20045;-84
2023/10/02 10:45:48;;;;;;;0.10;0.10;;;;;;;30.11;50.39;97082.94;4987750;28;20045;-84
2023/10/02 10:48:33;;;;;;;0.00;0.00;;;;;;;30.69;41.75;97090.50;4983291;28;20116;-84
2023/10/02 10:51:20;;;;;;;0.10;0.10;;;;;;;30.65;41.88;97087.63;4987518;28;20037;-85
2023/10/02 10:54:12;;;;;;;0.10;0.10;;;;;;;30.63;42.95;97080.88;4990088;28;20079;-85
2023/10/02 11:00:28;;;;;;;0.10;0.10;;;;;;;31.63;43.90;97086.28;4948565;28;20045;-85
2023/10/02 11:03:14;;;;;;;0.10;0.10;;;;;;;32.42;40.05;97082.75;4977203;28;20041;-85
2023/10/02 11:06:04;;;;;;;0.10;0.10;;;;;;;31.88;39.11;97090.28;4991339;28;20183;-84
2023/10/02 11:09:15;;;;;;;;;;;;;;;31.48;39.95;97087.22;4987586;28;20046;-85
2023/10/02 11:12:02;;;;;;;0.10;0.10;;;;;;;30.51;42.76;97090.91;4979158;28;19921;-84
2023/10/02 11:14:51;;;;;;;0.10;0.10;;;;;;;31.29;41.62;97077.84;4989233;28;20089;-84
2023/10/02 11:17:42;;;;;;;0.10;0.10;;;;;;;32.24;37.80;97087.22;4989283;28;20132;-84
2023/10/02 11:20:31;;;;;;;0.10;0.10;;;;;;;31.92;39.90;97072.94;4988272;28;20673;-85
2023/10/02 11:23:29;;;;;;;0.10;0.10;;;;;;;32.92;37.31;97072.28;4986442;28;20049;-84
2023/10/02 11:26:21;;;;;;;0.10;0.10;;;;;;;33.50;34.81;97066.13;4976067;28;20171;-85
2023/10/02 11:29:20;;;;;;;0.10;0.10;;;;;;;33.21;34.85;97060.28;4988657;28;20053;-85
2023/10/02 11:32:22;;;;;;;0.10;0.10;;;;;;;32.37;36.83;97060.91;4988444;28;20566;-84
2023/10/02 11:35:08;;;;;;;0.00;0.00;;;;;;;34.17;33.40;97059.47;4970229;28;20050;-85
2023/10/02 11:37:55;;;;;;;0.00;0.00;;;;;;;31.46;37.32;97059.97;4987589;28;20556;-85
2023/10/02 11:40:43;;;;;;;0.10;0.10;;;;;;;32.25;37.58;97050.84;4986936;28;20767;-85
2023/10/02 11:43:29;;;;;;;0.10;0.10;;;;;;;32.70;36.20;97046.28;4991258;28;20141;-84
2023/10/02 11:46:14;;;;;;;0.10;0.10;;;;;;;34.10;34.71;97038.03;4961716;28;20046;-85
2023/10/02 11:49:00;;;;;;;0.10;0.10;;;;;;;34.73;34.47;97038.69;4983273;28;20057;-85
2023/10/02 11:51:48;;;;;;;0.10;0.10;;;;;;;33.36;34.93;97041.81;4987356;28;20042;-86
2023/10/02 11:54:39;;;;;;;0.10;0.10;;;;;;;34.45;34.10;97025.50;4988584;28;20038;-86
2023/10/02 11:57:25;;;;;;;0.10;0.10;;;;;;;35.28;32.12;97032.84;4987519;28;20097;-86
2023/10/02 12:00:12;;;;;;;0.10;0.10;;;;;;;33.85;34.26;97032.28;4990954;28;20966;-85
2023/10/02 12:02:59;;;;;;;0.20;0.20;;;;;;;33.94;34.19;97027.22;4991744;28;20045;-85
2023/10/02 12:05:45;;;;;;;0.10;0.10;;;;;;;35.07;32.19;97028.84;4992740;28;20048;-85
2023/10/02 12:08:33;;;;;;;0.10;0.10;;;;;;;34.19;33.48;97027.34;5015773;28;20046;-85
2023/10/02 12:11:19;;;;;;;0.10;0.10;;;;;;;34.02;34.80;97014.97;5019414;28;20044;-84
2023/10/02 12:14:05;;;;;;;0.10;0.10;;;;;;;36.05;32.21;97014.53;4979878;28;20053;-85
2023/10/02 12:16:54;;;;;;;0.10;0.10;;;;;;;37.11;29.91;97012.44;4991867;28;20072;-85
2023/10/02 12:19:41;;;;;;;;;;;;;;;37.08;29.56;97016.03;4991138;28;20108;-85
2023/10/02 12:22:26;;;;;;;0.10;0.10;;;;;;;38.53;28.10;97012.28;4971989;28;19932;-85
2023/10/02 12:25:12;;;;;;;0.10;0.10;;;;;;;37.28;28.97;97003.16;4990124;28;20743;-85
2023/10/02 12:27:58;;;;;;;0.10;0.10;;;;;;;37.54;28.21;97007.31;4987393;28;20046;-85
2023/10/02 12:30:44;;;;;;;0.10;0.10;;;;;;;37.71;27.77;97002.78;4988909;28;20050;-85
2023/10/02 12:33:32;;;;;;;0.10;0.10;;;;;;;37.06;28.53;97002.50;4990594;28;20046;-84
2023/10/02 12:36:20;;;;;;;0.00;0.00;;;;;;;37.13;28.08;96998.88;4989355;28;20042;-85
2023/10/02 12:39:09;;;;;;;0.10;0.10;;;;;;;37.11;28.74;96978.97;4990547;28;20560;-85
2023/10/02 12:41:55;;;;;;;0.03;0.03;;;;;;;37.23;29.82;96981.25;4991447;28;20104;-85
2023/10/02 12:44:41;;;;;;;0.10;0.10;;;;;;;37.40;28.51;96973.97;4988633;28;20088;-86
2023/10/02 12:47:27;;;;;;;0.10;0.10;;;;;;;38.13;27.70;96981.19;4962759;28;20046;-83
2023/10/02 12:50:13;;;;;;;0.10;0.10;;;;;;;37.81;26.95;96976.75;4971628;28;20050;-83
2023/10/02 12:52:59;;;;;;;0.10;0.10;;;;;;;37.35;29.19;96975.19;4988296;28;20065;-83
2023/10/02 12:55:47;;;;;;;0.05;0.05;;;;;;;38.05;27.53;96974.91;4987798;28;20762;-83
2023/10/02 12:58:34;;;;;;;0.10;0.10;;;;;;;37.91;27.83;96970.28;4988595;28;20189;-83
2023/10/02 13:01:24;;;;;;;0.05;0.05;;;;;;;38.07;27.90;96969.72;4974403;28;20143;-84
2023/10/02 13:04:12;;;;;;;0.08;0.08;;;;;;;36.17;29.12;96961.16;4989560;28;20056;-83
2023/10/02 13:07:16;;;;;;;0.10;0.10;;;;;;;35.34;31.88;96962.53;4990643;28;20156;-84
2023/10/02 13:10:04;;;;;;;0.10;0.10;;;;;;;36.85;29.42;96946.09;4989250;28;20509;-83
2023/10/02 13:12:51;;;;;;;0.10;0.10;;;;;;;36.81;28.72;96960.03;4991118;28;20046;-84
2023/10/02 13:15:36;;;;;;;0.10;0.10;;;;;;;37.38;28.61;96958.84;4988897;28;20080;-83
2023/10/02 13:18:22;;;;;;;0.10;0.10;;;;;;;36.37;30.47;96955.13;4990151;28;20046;-84
2023/10/02 13:21:08;;;;;;;0.10;0.10;;;;;;;37.38;28.61;96956.06;4990838;28;20459;-84
2023/10/02 13:23:54;;;;;;;0.10;0.10;;;;;;;39.47;25.41;96955.31;4990792;28;20037;-84
2023/10/02 13:26:41;;;;;;;0.10;0.10;;;;;;;37.36;28.31;96957.28;4989257;28;20057;-84
2023/10/02 13:29:26;;;;;;;0.10;0.10;;;;;;;37.89;27.88;96952.34;4986945;28;20498;-85
2023/10/02 13:32:15;;;;;;;0.05;0.05;;;;;;;37.28;28.45;96952.94;4988420;28;20140;-84
2023/10/02 13:35:05;;;;;;;0.10;0.10;;;;;;;36.78;28.57;96956.06;4988353;28;20152;-84
2023/10/02 13:37:52;;;;;;;0.10;0.10;;;;;;;37.62;27.78;96957.81;4989022;28;20050;-85
2023/10/02 13:40:38;;;;;;;0.00;0.00;;;;;;;35.78;30.68;96952.13;4989368;28;20077;-85
2023/10/02 13:43:24;;;;;;;0.10;0.10;;;;;;;36.34;29.54;96939.19;4987873;28;20077;-84
2023/10/02 13:46:14;;;;;;;0.08;0.08;;;;;;;36.25;30.65;96948.78;4972783;28;20476;-86
2023/10/02 13:49:00;;;;;;;0.05;0.05;;;;;;;37.09;28.91;96937.53;4983365;28;20049;-84
2023/10/02 13:51:46;;;;;;;0.00;0.00;;;;;;;36.34;31.64;96936.41;4992252;28;20060;-85
2023/10/02 13:54:32;;;;;;;0.00;0.00;;;;;;;37.02;29.75;96934.03;4990109;28;20145;-84
2023/10/02 13:57:18;;;;;;;0.00;0.00;;;;;;;36.00;31.58;96936.97;4991001;28;20038;-85
2023/10/02 14:00:10;;;;;;;0.00;0.00;;;;;;;35.70;32.40;96938.22;4994183;28;20081;-85
2023/10/02 14:02:56;;;;;;;0.05;0.05;;;;;;;34.78;34.99;96933.47;4992915;28;20053;-85
2023/10/02 14:05:41;;;;;;;0.15;0.15;;;;;;;34.82;33.57;96923.19;4992522;28;20149;-85
2023/10/02 14:08:27;;;;;;;0.00;0.00;;;;;;;34.43;34.99;96917.56;4990673;28;20042;-85
2023/10/02 14:11:20;;;;;;;0.00;0.00;;;;;;;33.54;37.63;96919.91;4992488;28;20050;-85
2023/10/02 14:14:06;;;;;;;0.10;0.10;;;;;;;34.15;36.10;96923.00;4991458;28;20125;-84
2023/10/02 14:16:53;;;;;;;0.10;0.10;;;;;;;33.74;36.56;96914.88;4993626;28;20049;-85
2023/10/02 14:19:39;;;;;;;0.10;0.00;;;;;;;33.38;38.89;96923.00;4987876;28;20077;-85